Time;durP1;ratioP1;P1;durP2;ratioP2;P2;SDS_P1;SDS_P2;PMS_P1;PMS_P2;Temp;Humidity;BMP_temperature;BMP_pressure;BME280_temperature;BME280_humidity;BME280_pressure;Samples;Min_cycle;Max_cycle;Signal;HPM_P1;HPM_P2
2020/12/11 00:01:27;;;;;;;28.73;15.43;;;;;;;;;;5061443;28;20024;-80
2020/12/11 00:03:52;;;;;;;27.63;14.60;;;;;;;;;;5068411;28;20039;-80
2020/12/11 00:06:21;;;;;;;30.83;15.70;;;;;;;;;;5057616;28;20526;-79
2020/12/11 00:08:46;;;;;;;31.07;15.77;;;;;;;;;;5064917;28;20032;-80
2020/12/11 00:11:12;;;;;;;31.50;15.90;;;;;;;;;;5073755;28;20103;-80
2020/12/11 00:13:37;;;;;;;29.97;15.47;;;;;;;;;;5063041;28;20493;-80
2020/12/11 00:16:02;;;;;;;32.33;15.50;;;;;;;;;;5074242;28;20559;-80
2020/12/11 00:18:27;;;;;;;32.83;16.43;;;;;;;;;;5072551;28;20078;-80
2020/12/11 00:20:52;;;;;;;32.97;16.57;;;;;;;;;;5069693;28;20021;-80
2020/12/11 00:23:17;;;;;;;29.27;15.40;;;;;;;;;;5074336;28;20026;-80
2020/12/11 00:25:43;;;;;;;28.67;15.07;;;;;;;;;;5058652;28;20063;-80
2020/12/11 00:28:08;;;;;;;26.33;13.80;;;;;;;;;;5060445;28;20017;-81
2020/12/11 00:30:33;;;;;;;26.13;13.83;;;;;;;;;;5077761;28;20085;-80
2020/12/11 00:32:58;;;;;;;28.27;14.47;;;;;;;;;;5067046;28;20020;-80
2020/12/11 00:35:23;;;;;;;26.83;14.57;;;;;;;;;;5066385;28;20016;-80
2020/12/11 00:37:49;;;;;;;26.83;13.43;;;;;;;;;;5063350;28;20545;-80
2020/12/11 00:40:14;;;;;;;24.53;13.30;;;;;;;;;;5059149;28;20040;-80
2020/12/11 00:42:39;;;;;;;23.87;12.60;;;;;;;;;;5056702;28;20025;-80
2020/12/11 00:45:04;;;;;;;26.33;14.27;;;;;;;;;;5067693;28;20097;-80
2020/12/11 00:47:29;;;;;;;23.83;13.00;;;;;;;;;;5056346;28;20125;-80
2020/12/11 00:49:54;;;;;;;23.33;12.27;;;;;;;;;;5055697;28;20031;-80
2020/12/11 00:52:20;;;;;;;29.53;14.60;;;;;;;;;;5077023;28;20017;-80
2020/12/11 00:54:45;;;;;;;22.30;12.03;;;;;;;;;;5055256;28;20021;-80
2020/12/11 00:57:10;;;;;;;24.93;14.57;;;;;;;;;;5060855;28;20074;-81
2020/12/11 00:59:35;;;;;;;22.93;13.20;;;;;;;;;;5055838;28;20111;-81
2020/12/11 01:02:00;;;;;;;24.03;13.63;;;;;;;;;;5057054;28;20475;-80
2020/12/11 01:04:26;;;;;;;24.73;13.80;;;;;;;;;;5065331;28;20013;-80
2020/12/11 01:06:51;;;;;;;25.17;13.63;;;;;;;;;;5056685;28;20029;-80
2020/12/11 01:09:16;;;;;;;25.63;14.40;;;;;;;;;;5058363;28;20024;-80
2020/12/11 01:11:41;;;;;;;26.17;14.73;;;;;;;;;;5054196;28;20116;-80
2020/12/11 01:14:07;;;;;;;26.20;13.87;;;;;;;;;;5066244;28;20041;-80
2020/12/11 01:16:32;;;;;;;24.50;13.07;;;;;;;;;;5059515;28;20078;-80
2020/12/11 01:18:57;;;;;;;29.47;14.70;;;;;;;;;;5058098;28;20066;-80
2020/12/11 01:21:23;;;;;;;24.10;12.80;;;;;;;;;;5058162;28;20025;-80
2020/12/11 01:23:48;;;;;;;24.57;12.90;;;;;;;;;;5055226;28;20029;-80
2020/12/11 01:26:13;;;;;;;23.73;12.60;;;;;;;;;;5058384;28;20476;-80
2020/12/11 01:28:39;;;;;;;22.67;13.13;;;;;;;;;;5087437;28;20025;-80
2020/12/11 01:31:04;;;;;;;23.13;13.33;;;;;;;;;;5058370;28;20032;-80
2020/12/11 01:33:29;;;;;;;23.27;13.27;;;;;;;;;;5065747;28;20020;-80
2020/12/11 01:35:54;;;;;;;22.17;12.63;;;;;;;;;;5081945;28;20035;-80
2020/12/11 01:38:19;;;;;;;21.58;11.90;;;;;;;;;;5061703;28;20046;-81
2020/12/11 01:40:46;;;;;;;21.25;11.88;;;;;;;;;;5068672;28;20125;-81
2020/12/11 01:43:11;;;;;;;21.48;12.30;;;;;;;;;;5056493;28;20078;-80
2020/12/11 01:45:36;;;;;;;22.92;12.05;;;;;;;;;;5062254;28;20024;-80
2020/12/11 01:48:02;;;;;;;23.47;12.70;;;;;;;;;;5072679;28;20077;-81
2020/12/11 01:50:27;;;;;;;22.37;12.73;;;;;;;;;;5060446;28;20051;-81
2020/12/11 01:52:52;;;;;;;23.27;12.73;;;;;;;;;;5055992;28;20052;-80
2020/12/11 01:55:18;;;;;;;20.97;11.80;;;;;;;;;;5064012;28;20382;-80
2020/12/11 01:57:52;;;;;;;22.70;11.95;;;;;;;;;;5066924;28;20103;-81
2020/12/11 02:00:19;;;;;;;22.02;12.82;;;;;;;;;;5058966;28;20116;-80
2020/12/11 02:02:45;;;;;;;20.83;12.68;;;;;;;;;;5059128;28;20025;-80
2020/12/11 02:05:10;;;;;;;23.87;13.70;;;;;;;;;;5059038;28;20033;-80
2020/12/11 02:07:36;;;;;;;24.83;13.60;;;;;;;;;;5070807;28;20027;-81
2020/12/11 02:10:02;;;;;;;24.17;13.70;;;;;;;;;;5071433;28;20534;-80
2020/12/11 02:12:27;;;;;;;26.53;14.23;;;;;;;;;;5062316;28;20020;-80
2020/12/11 02:14:52;;;;;;;25.13;13.70;;;;;;;;;;5067520;28;20487;-80
2020/12/11 02:17:17;;;;;;;25.83;14.50;;;;;;;;;;5067109;28;20025;-80
2020/12/11 02:19:42;;;;;;;27.97;15.00;;;;;;;;;;5060284;28;20025;-80
2020/12/11 02:22:08;;;;;;;25.63;13.47;;;;;;;;;;5064125;28;20028;-80
2020/12/11 02:24:33;;;;;;;26.93;14.17;;;;;;;;;;5063144;28;20051;-79
2020/12/11 02:26:59;;;;;;;26.60;12.43;;;;;;;;;;5058578;28;20021;-80
2020/12/11 02:29:25;;;;;;;25.57;13.57;;;;;;;;;;5062865;28;20021;-80
2020/12/11 02:31:50;;;;;;;24.67;13.43;;;;;;;;;;5057836;28;20025;-80
2020/12/11 02:34:16;;;;;;;24.40;13.20;;;;;;;;;;5059838;28;20024;-80
2020/12/11 02:36:41;;;;;;;23.03;12.70;;;;;;;;;;5081625;28;20066;-80
2020/12/11 02:39:06;;;;;;;23.10;12.33;;;;;;;;;;5066278;28;20028;-80
2020/12/11 02:41:31;;;;;;;22.10;11.67;;;;;;;;;;5063066;28;20493;-80
2020/12/11 02:43:57;;;;;;;22.53;12.70;;;;;;;;;;5066132;28;20025;-81
2020/12/11 02:46:22;;;;;;;17.80;10.83;;;;;;;;;;5058078;28;20020;-80
2020/12/11 02:48:47;;;;;;;24.83;12.97;;;;;;;;;;5062278;28;20052;-81
2020/12/11 02:51:12;;;;;;;26.33;13.27;;;;;;;;;;5074951;28;20020;-81
2020/12/11 02:53:39;;;;;;;25.07;11.80;;;;;;;;;;5063594;28;20029;-80
2020/12/11 02:56:04;;;;;;;18.17;10.63;;;;;;;;;;5059688;28;20017;-80
2020/12/11 02:58:29;;;;;;;19.30;10.87;;;;;;;;;;5065192;28;20033;-80
2020/12/11 03:00:54;;;;;;;21.50;12.15;;;;;;;;;;5060342;28;20070;-80
2020/12/11 03:03:19;;;;;;;23.77;12.43;;;;;;;;;;5056464;28;20037;-80
2020/12/11 03:05:44;;;;;;;23.50;12.48;;;;;;;;;;5063511;28;20028;-81
2020/12/11 03:08:10;;;;;;;23.20;12.95;;;;;;;;;;5059220;28;20108;-80
2020/12/11 03:10:35;;;;;;;18.80;10.32;;;;;;;;;;5062224;28;20024;-80
2020/12/11 03:13:00;;;;;;;20.85;12.10;;;;;;;;;;5059542;28;20078;-80
2020/12/11 03:15:25;;;;;;;19.58;9.45;;;;;;;;;;5056874;28;20361;-80
2020/12/11 03:17:50;;;;;;;17.80;10.23;;;;;;;;;;5061544;28;20016;-80
2020/12/11 03:20:22;;;;;;;20.67;11.20;;;;;;;;;;5066860;28;20032;-81
2020/12/11 03:22:48;;;;;;;21.80;11.95;;;;;;;;;;5058787;28;20020;-81
2020/12/11 03:25:13;;;;;;;20.02;10.55;;;;;;;;;;5088541;28;20178;-81
2020/12/11 03:27:38;;;;;;;20.95;10.48;;;;;;;;;;5059412;28;20491;-80
2020/12/11 03:30:03;;;;;;;21.20;11.50;;;;;;;;;;5063410;28;20021;-80
2020/12/11 03:32:29;;;;;;;19.70;11.60;;;;;;;;;;5077844;28;20024;-80
2020/12/11 03:34:54;;;;;;;17.38;9.50;;;;;;;;;;5068407;28;20472;-80
2020/12/11 03:37:19;;;;;;;19.25;10.70;;;;;;;;;;5061219;28;20024;-81
2020/12/11 03:39:44;;;;;;;18.42;10.52;;;;;;;;;;5064080;28;20052;-81
2020/12/11 03:42:09;;;;;;;18.00;10.25;;;;;;;;;;5059180;28;20021;-81
2020/12/11 03:44:35;;;;;;;18.02;10.63;;;;;;;;;;5063536;28;20028;-81
2020/12/11 03:47:00;;;;;;;20.83;11.35;;;;;;;;;;5069119;28;20407;-81
2020/12/11 03:49:25;;;;;;;19.90;11.45;;;;;;;;;;5061369;28;20036;-80
2020/12/11 03:51:53;;;;;;;21.70;11.10;;;;;;;;;;5052274;28;20384;-80
2020/12/11 03:54:19;;;;;;;16.80;8.82;;;;;;;;;;5074977;28;20016;-80
2020/12/11 03:56:46;;;;;;;21.65;12.30;;;;;;;;;;5069197;28;20042;-80
2020/12/11 03:59:11;;;;;;;21.25;11.65;;;;;;;;;;5058398;28;20024;-80
2020/12/11 04:01:36;;;;;;;19.42;10.63;;;;;;;;;;5078424;28;20570;-81
2020/12/11 04:04:01;;;;;;;18.17;10.05;;;;;;;;;;5053186;28;20048;-81
2020/12/11 04:06:27;;;;;;;19.10;10.90;;;;;;;;;;5061136;28;20360;-80
2020/12/11 04:08:52;;;;;;;22.15;11.38;;;;;;;;;;5068302;28;20021;-81
2020/12/11 04:11:17;;;;;;;22.30;11.80;;;;;;;;;;5069061;28;20021;-81
2020/12/11 04:13:42;;;;;;;21.48;10.25;;;;;;;;;;5069129;28;20080;-81
2020/12/11 04:16:09;;;;;;;22.48;12.13;;;;;;;;;;5056719;28;20023;-80
2020/12/11 04:18:34;;;;;;;22.50;11.93;;;;;;;;;;5067859;28;20174;-80
2020/12/11 04:21:00;;;;;;;17.98;9.70;;;;;;;;;;5060005;28;20114;-80
2020/12/11 04:23:26;;;;;;;20.92;11.15;;;;;;;;;;5057595;28;20027;-80
2020/12/11 04:25:51;;;;;;;15.85;8.93;;;;;;;;;;5054346;28;20038;-80
2020/12/11 04:28:17;;;;;;;17.08;10.23;;;;;;;;;;5075208;28;20020;-81
2020/12/11 04:30:42;;;;;;;16.50;8.82;;;;;;;;;;5055199;28;20358;-81
2020/12/11 04:33:08;;;;;;;21.38;11.05;;;;;;;;;;5058515;28;20090;-81
2020/12/11 04:35:33;;;;;;;20.00;10.00;;;;;;;;;;5063125;28;20415;-80
2020/12/11 04:37:59;;;;;;;18.67;9.95;;;;;;;;;;5059965;28;20032;-80
2020/12/11 04:40:24;;;;;;;23.63;10.95;;;;;;;;;;5059169;28;20013;-81
2020/12/11 04:42:50;;;;;;;18.80;9.80;;;;;;;;;;5063035;28;20029;-80
2020/12/11 04:45:15;;;;;;;20.73;11.10;;;;;;;;;;5072769;28;20074;-81
2020/12/11 04:47:42;;;;;;;21.20;10.02;;;;;;;;;;5055235;28;20464;-81
2020/12/11 04:50:07;;;;;;;18.55;9.90;;;;;;;;;;5054029;28;20051;-80
2020/12/11 04:52:35;;;;;;;22.83;12.05;;;;;;;;;;5064145;28;20013;-80
2020/12/11 04:55:01;;;;;;;20.75;11.90;;;;;;;;;;5056457;28;20482;-81
2020/12/11 04:57:30;;;;;;;17.73;9.73;;;;;;;;;;5061329;28;20108;-80
2020/12/11 04:59:55;;;;;;;21.05;11.57;;;;;;;;;;5072321;28;20032;-81
2020/12/11 05:02:21;;;;;;;16.80;9.52;;;;;;;;;;5062194;28;20098;-80
2020/12/11 05:04:50;;;;;;;19.85;11.38;;;;;;;;;;5054320;28;20029;-81
2020/12/11 05:07:15;;;;;;;21.23;11.07;;;;;;;;;;5055610;28;20472;-80
2020/12/11 05:09:41;;;;;;;20.48;10.40;;;;;;;;;;5054910;28;20025;-80
2020/12/11 05:12:14;;;;;;;15.93;8.73;;;;;;;;;;5053841;28;20029;-81
2020/12/11 05:14:39;;;;;;;27.65;11.60;;;;;;;;;;5075414;28;20107;-81
2020/12/11 05:17:05;;;;;;;19.17;10.15;;;;;;;;;;5066511;28;20092;-80
2020/12/11 05:19:31;;;;;;;22.27;11.55;;;;;;;;;;5060204;28;20152;-80
2020/12/11 05:22:12;;;;;;;21.50;12.05;;;;;;;;;;5071262;28;20098;-81
2020/12/11 05:24:43;;;;;;;20.20;10.60;;;;;;;;;;5060689;28;20024;-81
2020/12/11 05:27:23;;;;;;;17.98;9.73;;;;;;;;;;5057665;28;20472;-80
2020/12/11 05:29:48;;;;;;;15.18;8.55;;;;;;;;;;5060441;28;20036;-80
2020/12/11 05:32:13;;;;;;;20.25;9.65;;;;;;;;;;5053034;28;20384;-80
2020/12/11 05:34:38;;;;;;;25.10;11.35;;;;;;;;;;5061346;28;20020;-81
2020/12/11 05:37:03;;;;;;;18.30;10.18;;;;;;;;;;5060266;28;20023;-81
2020/12/11 05:39:29;;;;;;;19.88;10.40;;;;;;;;;;5064122;28;20036;-80
2020/12/11 05:41:54;;;;;;;16.13;9.05;;;;;;;;;;5057591;28;20020;-80
2020/12/11 05:44:25;;;;;;;19.92;10.30;;;;;;;;;;5074122;28;20024;-81
2020/12/11 05:46:50;;;;;;;18.37;10.33;;;;;;;;;;5064000;28;20477;-80
2020/12/11 05:49:29;;;;;;;16.95;9.40;;;;;;;;;;5067226;28;21150;-81
2020/12/11 05:52:13;;;;;;;16.38;9.52;;;;;;;;;;5063560;28;20032;-81
2020/12/11 05:54:44;;;;;;;16.98;10.15;;;;;;;;;;5060326;28;20368;-81
2020/12/11 05:57:10;;;;;;;19.42;9.68;;;;;;;;;;5061992;28;20098;-81
2020/12/11 05:59:36;;;;;;;18.60;9.98;;;;;;;;;;5058790;28;20413;-81
2020/12/11 06:02:02;;;;;;;16.35;9.43;;;;;;;;;;5055463;28;20053;-81
2020/12/11 06:04:28;;;;;;;18.02;10.10;;;;;;;;;;5058696;28;20017;-81
2020/12/11 06:06:55;;;;;;;16.65;8.82;;;;;;;;;;5059640;28;20064;-81
2020/12/11 06:09:22;;;;;;;16.00;9.00;;;;;;;;;;5089599;28;20028;-81
2020/12/11 06:11:52;;;;;;;16.13;9.05;;;;;;;;;;5060347;28;20112;-81
2020/12/11 06:14:22;;;;;;;18.52;10.00;;;;;;;;;;5066692;28;20062;-81
2020/12/11 06:16:48;;;;;;;17.73;9.90;;;;;;;;;;5060874;28;20024;-81
2020/12/11 06:19:15;;;;;;;14.65;7.57;;;;;;;;;;5061413;28;20465;-81
2020/12/11 06:21:42;;;;;;;16.10;8.23;;;;;;;;;;5066625;28;20111;-81
2020/12/11 06:24:26;;;;;;;18.13;8.95;;;;;;;;;;5067624;28;20783;-81
2020/12/11 06:26:55;;;;;;;16.52;9.13;;;;;;;;;;5089795;28;20040;-81
2020/12/11 06:29:30;;;;;;;14.90;8.65;;;;;;;;;;5062171;28;20025;-81
2020/12/11 06:31:55;;;;;;;18.33;10.88;;;;;;;;;;5067666;28;20063;-80
2020/12/11 06:34:21;;;;;;;14.05;8.07;;;;;;;;;;5059697;28;20056;-80
2020/12/11 06:36:47;;;;;;;18.08;9.10;;;;;;;;;;5079567;28;20495;-81
2020/12/11 06:39:32;;;;;;;14.90;8.05;;;;;;;;;;5056914;28;20037;-81
2020/12/11 06:41:57;;;;;;;18.27;10.50;;;;;;;;;;5060733;28;20024;-81
2020/12/11 06:44:22;;;;;;;17.58;9.45;;;;;;;;;;5062873;28;20028;-80
2020/12/11 06:47:07;;;;;;;16.33;10.03;;;;;;;;;;5056046;28;20112;-80
2020/12/11 06:49:32;;;;;;;15.35;7.65;;;;;;;;;;5065555;28;20061;-81
2020/12/11 06:52:00;;;;;;;13.65;7.95;;;;;;;;;;5064674;28;20021;-80
2020/12/11 06:54:26;;;;;;;20.15;9.82;;;;;;;;;;5064443;28;20548;-81
2020/12/11 06:56:51;;;;;;;17.73;9.10;;;;;;;;;;5069990;28;20043;-81
2020/12/11 06:59:22;;;;;;;18.77;10.47;;;;;;;;;;5062132;28;20063;-81
2020/12/11 07:01:53;;;;;;;15.65;7.72;;;;;;;;;;5062674;28;20025;-81
2020/12/11 07:04:19;;;;;;;18.10;8.23;;;;;;;;;;5072406;28;20358;-81
2020/12/11 07:06:51;;;;;;;15.43;7.30;;;;;;;;;;5061190;28;20028;-81
2020/12/11 07:09:17;;;;;;;13.52;7.63;;;;;;;;;;5060652;28;20048;-81
2020/12/11 07:11:42;;;;;;;19.58;9.35;;;;;;;;;;5068576;28;20102;-81
2020/12/11 07:14:08;;;;;;;15.15;8.27;;;;;;;;;;5063848;28;20079;-81
2020/12/11 07:16:39;;;;;;;15.02;7.60;;;;;;;;;;5062212;28;20704;-81
2020/12/11 07:19:05;;;;;;;14.98;8.68;;;;;;;;;;5072556;28;20024;-81
2020/12/11 07:21:31;;;;;;;16.10;8.32;;;;;;;;;;5061760;28;20054;-81
2020/12/11 07:23:56;;;;;;;16.45;8.48;;;;;;;;;;5057000;28;20104;-81
2020/12/11 07:26:22;;;;;;;13.68;7.75;;;;;;;;;;5068221;28;20024;-81
2020/12/11 07:28:47;;;;;;;14.13;8.40;;;;;;;;;;5060221;28;20033;-80
2020/12/11 07:31:12;;;;;;;16.80;9.10;;;;;;;;;;5063327;28;20074;-80
2020/12/11 07:33:37;;;;;;;14.73;7.17;;;;;;;;;;5077649;28;20042;-80
2020/12/11 07:36:03;;;;;;;13.77;7.45;;;;;;;;;;5062331;28;20017;-81
2020/12/11 07:38:29;;;;;;;17.20;9.33;;;;;;;;;;5064213;28;20380;-80
2020/12/11 07:40:55;;;;;;;17.47;9.90;;;;;;;;;;5063164;28;20031;-81
2020/12/11 07:43:21;;;;;;;16.90;8.70;;;;;;;;;;5060413;28;20032;-81
2020/12/11 07:45:47;;;;;;;16.03;8.67;;;;;;;;;;5073050;28;20032;-81
2020/12/11 07:48:12;;;;;;;19.47;8.87;;;;;;;;;;5078118;28;20012;-81
2020/12/11 07:50:37;;;;;;;15.93;8.23;;;;;;;;;;5060244;28;20028;-81
2020/12/11 07:53:06;;;;;;;15.85;7.57;;;;;;;;;;5068671;28;20021;-81
2020/12/11 07:55:31;;;;;;;14.20;7.47;;;;;;;;;;5065108;28;20028;-81
2020/12/11 07:57:57;;;;;;;14.68;6.93;;;;;;;;;;5064684;28;20025;-81
2020/12/11 08:00:24;;;;;;;14.48;8.45;;;;;;;;;;5061537;28;20025;-81
2020/12/11 08:02:52;;;;;;;15.25;8.45;;;;;;;;;;5061932;28;20507;-81
2020/12/11 08:05:17;;;;;;;12.68;7.05;;;;;;;;;;5071679;28;20383;-81
2020/12/11 08:07:47;;;;;;;12.45;7.43;;;;;;;;;;5066994;28;20025;-81
2020/12/11 08:10:13;;;;;;;11.43;7.18;;;;;;;;;;5059871;28;20017;-81
2020/12/11 08:12:41;;;;;;;14.47;7.90;;;;;;;;;;5068033;28;20051;-81
2020/12/11 08:15:07;;;;;;;13.23;7.38;;;;;;;;;;5066303;28;20017;-81
2020/12/11 08:17:33;;;;;;;13.30;7.40;;;;;;;;;;5056641;28;20020;-81
2020/12/11 08:19:58;;;;;;;9.53;6.13;;;;;;;;;;5062904;28;20455;-81
2020/12/11 08:22:29;;;;;;;12.35;6.85;;;;;;;;;;5063212;28;20024;-81
2020/12/11 08:24:54;;;;;;;10.80;4.63;;;;;;;;;;5059191;28;20021;-81
2020/12/11 08:27:20;;;;;;;11.35;6.32;;;;;;;;;;5092679;28;20031;-81
2020/12/11 08:30:04;;;;;;;10.27;5.72;;;;;;;;;;5059774;28;20468;-81
2020/12/11 08:32:29;;;;;;;12.48;7.22;;;;;;;;;;5075096;28;20546;-81
2020/12/11 08:34:54;;;;;;;10.48;6.13;;;;;;;;;;5073775;28;20103;-81
2020/12/11 08:37:19;;;;;;;10.10;5.32;;;;;;;;;;5068155;28;20380;-81
2020/12/11 08:39:45;;;;;;;11.13;6.30;;;;;;;;;;5057081;28;20029;-81
2020/12/11 08:52:28;;;;;;;10.45;6.30;;;;;;;;;;5065339;28;20012;-81
2020/12/11 08:54:54;;;;;;;11.43;6.82;;;;;;;;;;5066205;28;20024;-83
2020/12/11 08:57:19;;;;;;;10.95;6.45;;;;;;;;;;5063872;28;20016;-81
2020/12/11 08:59:44;;;;;;;11.25;6.30;;;;;;;;;;5067199;28;20044;-81
2020/12/11 09:02:09;;;;;;;9.75;5.25;;;;;;;;;;5076271;28;20027;-82
2020/12/11 09:04:35;;;;;;;13.30;6.85;;;;;;;;;;5066569;28;20020;-81
2020/12/11 09:07:00;;;;;;;9.73;5.55;;;;;;;;;;5063386;28;20037;-81
2020/12/11 09:09:25;;;;;;;13.68;6.45;;;;;;;;;;5065322;28;20464;-81
2020/12/11 09:11:50;;;;;;;16.65;5.15;;;;;;;;;;5059272;28;20051;-81
2020/12/11 09:14:15;;;;;;;10.13;5.80;;;;;;;;;;5064374;28;20012;-81
2020/12/11 09:16:41;;;;;;;10.65;6.47;;;;;;;;;;5068920;28;20025;-81
2020/12/11 09:19:06;;;;;;;10.80;6.25;;;;;;;;;;5068934;28;20780;-81
2020/12/11 09:21:31;;;;;;;9.82;5.95;;;;;;;;;;5059435;28;20017;-81
2020/12/11 09:23:56;;;;;;;9.43;5.13;;;;;;;;;;5062978;28;20035;-81
2020/12/11 09:26:23;;;;;;;11.27;6.40;;;;;;;;;;5062232;28;20067;-81
2020/12/11 09:28:52;;;;;;;9.40;5.38;;;;;;;;;;5075124;28;20021;-81
2020/12/11 09:31:22;;;;;;;11.65;6.40;;;;;;;;;;5064559;28;20020;-81
2020/12/11 09:33:47;;;;;;;11.35;5.50;;;;;;;;;;5065776;28;20021;-81
2020/12/11 09:36:12;;;;;;;11.38;5.32;;;;;;;;;;5064919;28;20013;-81
2020/12/11 09:38:37;;;;;;;8.75;4.75;;;;;;;;;;5061113;28;20494;-81
2020/12/11 09:41:05;;;;;;;8.75;5.00;;;;;;;;;;5064223;28;20028;-81
2020/12/11 09:46:30;;;;;;;9.73;5.97;;;;;;;;;;5073141;28;20378;-81
2020/12/11 09:49:04;;;;;;;9.63;5.72;;;;;;;;;;5069122;28;20465;-80
2020/12/11 09:56:26;;;;;;;9.13;5.03;;;;;;;;;;5062140;28;20017;-81
2020/12/11 09:59:02;;;;;;;7.95;4.68;;;;;;;;;;5063132;28;20031;-81
2020/12/11 10:02:23;;;;;;;9.43;5.15;;;;;;;;;;5082353;28;20031;-81
2020/12/11 10:04:13;;;;;;;10.43;6.40;;;;;;;;;;5057115;28;20032;-81
2020/12/11 10:06:38;;;;;;;9.15;4.90;;;;;;;;;;5060798;28;20131;-81
2020/12/11 10:09:04;;;;;;;9.00;5.45;;;;;;;;;;5057823;28;20028;-81
2020/12/11 10:11:29;;;;;;;8.95;4.68;;;;;;;;;;5061167;28;20025;-81
2020/12/11 10:14:11;;;;;;;11.48;6.30;;;;;;;;;;5063742;28;20457;-81
2020/12/11 10:16:36;;;;;;;7.90;4.63;;;;;;;;;;5082004;28;20154;-82
2020/12/11 10:19:01;;;;;;;9.20;5.30;;;;;;;;;;5058634;28;20108;-81
2020/12/11 10:21:29;;;;;;;9.40;5.32;;;;;;;;;;5060776;28;20403;-82
2020/12/11 10:23:54;;;;;;;9.88;5.57;;;;;;;;;;5072512;28;20492;-81
2020/12/11 10:26:19;;;;;;;8.98;5.25;;;;;;;;;;5074167;28;20051;-80
2020/12/11 10:28:44;;;;;;;7.07;4.22;;;;;;;;;;5060804;28;20032;-79
2020/12/11 10:31:09;;;;;;;8.48;4.57;;;;;;;;;;5073409;28;20395;-79
2020/12/11 10:33:35;;;;;;;7.20;4.35;;;;;;;;;;5076423;28;20028;-79
2020/12/11 10:36:00;;;;;;;10.02;5.55;;;;;;;;;;5076546;28;20048;-79
2020/12/11 10:38:26;;;;;;;9.15;5.57;;;;;;;;;;5081642;28;20031;-79
2020/12/11 10:40:51;;;;;;;9.32;5.72;;;;;;;;;;5065368;28;20017;-79
2020/12/11 10:43:17;;;;;;;10.60;6.05;;;;;;;;;;5062504;28;20162;-79
2020/12/11 10:45:42;;;;;;;8.43;4.97;;;;;;;;;;5058791;28;20066;-79
2020/12/11 10:48:07;;;;;;;8.77;5.22;;;;;;;;;;5059072;28;20045;-79
2020/12/11 10:50:32;;;;;;;9.82;5.75;;;;;;;;;;5061833;28;20017;-78
2020/12/11 10:52:57;;;;;;;10.93;5.47;;;;;;;;;;5091854;28;20063;-79
2020/12/11 10:55:23;;;;;;;7.60;4.60;;;;;;;;;;5055962;28;20017;-79
2020/12/11 10:57:48;;;;;;;9.15;5.32;;;;;;;;;;5062579;28;20024;-79
2020/12/11 11:00:13;;;;;;;13.07;6.22;;;;;;;;;;5042893;28;596013;-79
2020/12/11 11:02:44;;;;;;;8.68;5.35;;;;;;;;;;5061157;28;20020;-79
2020/12/11 11:05:09;;;;;;;9.48;4.63;;;;;;;;;;5061680;28;20028;-79
2020/12/11 11:07:35;;;;;;;7.75;5.10;;;;;;;;;;5065161;28;20479;-79
2020/12/11 11:12:39;;;;;;;7.40;4.65;;;;;;;;;;5066298;28;20036;-79
2020/12/11 11:28:03;;;;;;;8.60;4.63;;;;;;;;;;5069265;28;20054;-79
2020/12/11 11:30:29;;;;;;;8.10;4.18;;;;;;;;;;5053270;28;20025;-79
2020/12/11 11:32:55;;;;;;;8.15;4.28;;;;;;;;;;5056817;28;20032;-79
2020/12/11 11:35:20;;;;;;;7.25;4.07;;;;;;;;;;5066683;28;20515;-80
2020/12/11 11:37:46;;;;;;;7.85;4.20;;;;;;;;;;5060028;28;20104;-79
2020/12/11 11:40:11;;;;;;;5.63;3.42;;;;;;;;;;5065778;28;20077;-80
2020/12/11 11:42:37;;;;;;;6.82;4.32;;;;;;;;;;5063602;28;20025;-80
2020/12/11 11:45:04;;;;;;;8.15;4.40;;;;;;;;;;5098385;28;20036;-80
2020/12/11 11:47:30;;;;;;;8.32;4.10;;;;;;;;;;5059476;28;20048;-80
2020/12/11 11:52:47;;;;;;;7.05;3.53;;;;;;;;;;5058117;28;20098;-80
2020/12/11 11:55:13;;;;;;;4.72;2.63;;;;;;;;;;5062195;28;20059;-80
2020/12/11 11:57:39;;;;;;;5.85;3.70;;;;;;;;;;5078482;28;20694;-80
2020/12/11 12:00:05;;;;;;;6.88;4.03;;;;;;;;;;5065260;28;20106;-80
2020/12/11 12:02:30;;;;;;;5.50;3.17;;;;;;;;;;5066927;28;20032;-81
2020/12/11 12:04:55;;;;;;;7.53;3.72;;;;;;;;;;5072960;28;20572;-80
2020/12/11 12:07:20;;;;;;;7.05;3.65;;;;;;;;;;5060068;28;20025;-80
2020/12/11 12:09:46;;;;;;;6.40;3.53;;;;;;;;;;5060187;28;20464;-80
2020/12/11 12:12:11;;;;;;;3.90;2.45;;;;;;;;;;5068960;28;20065;-80
2020/12/11 12:14:36;;;;;;;4.68;1.95;;;;;;;;;;5058597;28;20384;-80
2020/12/11 12:17:04;;;;;;;7.80;2.67;;;;;;;;;;5063862;28;20536;-80
2020/12/11 12:19:40;;;;;;;6.60;3.30;;;;;;;;;;5069294;28;20468;-80
2020/12/11 12:27:33;;;;;;;5.97;2.97;;;;;;;;;;5061423;28;21309;-80
2020/12/11 12:29:58;;;;;;;5.13;3.20;;;;;;;;;;5091373;28;20028;-80
2020/12/11 12:32:26;;;;;;;4.80;2.45;;;;;;;;;;5054408;28;20021;-80
2020/12/11 12:35:03;;;;;;;4.43;2.33;;;;;;;;;;5065880;28;20151;-80
2020/12/11 12:43:07;;;;;;;3.22;2.00;;;;;;;;;;5061612;28;20090;-80
2020/12/11 12:45:32;;;;;;;3.72;2.17;;;;;;;;;;5058665;28;20086;-80
2020/12/11 12:47:57;;;;;;;3.97;2.40;;;;;;;;;;5087434;28;20524;-80
2020/12/11 12:50:23;;;;;;;4.68;2.22;;;;;;;;;;5089720;28;20029;-80
2020/12/11 12:52:48;;;;;;;4.82;2.35;;;;;;;;;;5056945;28;20016;-80
2020/12/11 12:55:17;;;;;;;2.83;1.75;;;;;;;;;;5057327;28;20017;-80
2020/12/11 12:57:48;;;;;;;2.42;1.50;;;;;;;;;;5070681;28;20024;-80
2020/12/11 13:05:13;;;;;;;4.05;1.60;;;;;;;;;;5072143;28;20536;-80
2020/12/11 13:07:38;;;;;;;2.13;1.33;;;;;;;;;;5057776;28;20048;-80
2020/12/11 13:10:04;;;;;;;2.30;1.45;;;;;;;;;;5054421;28;20025;-80
2020/12/11 13:12:30;;;;;;;2.33;1.30;;;;;;;;;;5059186;28;20028;-80
2020/12/11 13:14:55;;;;;;;4.75;1.77;;;;;;;;;;5062631;28;20008;-80
2020/12/11 13:17:20;;;;;;;4.32;2.20;;;;;;;;;;5063391;28;20404;-80
2020/12/11 13:19:46;;;;;;;4.97;2.10;;;;;;;;;;5067297;28;20017;-81
2020/12/11 13:22:27;;;;;;;3.50;1.65;;;;;;;;;;5055276;28;20021;-81
2020/12/11 13:27:36;;;;;;;1.90;1.45;;;;;;;;;;5057326;28;20032;-81
2020/12/11 13:30:02;;;;;;;3.30;1.75;;;;;;;;;;5068747;28;20017;-81
2020/12/11 13:32:27;;;;;;;2.70;1.67;;;;;;;;;;5062234;28;20021;-80
2020/12/11 13:34:53;;;;;;;2.65;1.48;;;;;;;;;;5058617;28;20377;-81
2020/12/11 13:37:18;;;;;;;2.25;1.25;;;;;;;;;;5062748;28;20048;-80
2020/12/11 13:39:43;;;;;;;3.13;1.40;;;;;;;;;;5051644;28;20029;-81
2020/12/11 13:42:08;;;;;;;4.80;1.70;;;;;;;;;;5062341;28;20070;-80
2020/12/11 13:44:34;;;;;;;3.65;1.77;;;;;;;;;;5068105;28;20032;-81
2020/12/11 13:46:59;;;;;;;4.93;2.15;;;;;;;;;;5061393;28;20028;-81
2020/12/11 13:49:24;;;;;;;3.03;1.92;;;;;;;;;;5058104;28;20074;-80
2020/12/11 13:51:49;;;;;;;3.03;1.60;;;;;;;;;;5061040;28;20035;-80
2020/12/11 13:54:15;;;;;;;3.17;1.33;;;;;;;;;;5066541;28;20012;-80
2020/12/11 13:56:40;;;;;;;2.90;1.88;;;;;;;;;;5076328;28;20085;-80
2020/12/11 13:59:07;;;;;;;2.35;1.50;;;;;;;;;;5073995;28;20028;-80
2020/12/11 14:01:32;;;;;;;3.85;1.63;;;;;;;;;;5059963;28;20032;-80
2020/12/11 14:03:57;;;;;;;2.38;1.33;;;;;;;;;;5062454;28;20036;-80
2020/12/11 14:06:29;;;;;;;7.75;1.55;;;;;;;;;;5073476;28;20017;-80
2020/12/11 14:08:55;;;;;;;2.75;1.70;;;;;;;;;;5062099;28;20400;-80
2020/12/11 14:11:23;;;;;;;3.97;2.10;;;;;;;;;;5067062;28;20032;-80
2020/12/11 14:13:49;;;;;;;2.72;1.80;;;;;;;;;;5090556;28;20047;-80
2020/12/11 14:16:18;;;;;;;3.47;1.70;;;;;;;;;;5066519;28;20468;-81
2020/12/11 14:18:47;;;;;;;4.18;1.80;;;;;;;;;;5067116;28;20024;-81
2020/12/11 14:23:45;;;;;;;4.15;1.90;;;;;;;;;;5058268;28;20055;-80
2020/12/11 14:26:10;;;;;;;4.80;1.60;;;;;;;;;;5060200;28;20033;-81
2020/12/11 14:28:35;;;;;;;4.30;2.10;;;;;;;;;;5061093;28;20107;-81
2020/12/11 14:31:01;;;;;;;3.85;2.08;;;;;;;;;;5060348;28;20368;-80
2020/12/11 14:33:26;;;;;;;3.28;1.60;;;;;;;;;;5068709;28;20021;-81
2020/12/11 14:35:51;;;;;;;2.60;1.75;;;;;;;;;;5076702;28;20016;-81
2020/12/11 14:38:33;;;;;;;5.68;1.52;;;;;;;;;;5066466;28;20017;-80
2020/12/11 14:40:58;;;;;;;;;;;;;;;;;;5061192;28;20008;-81
2020/12/11 14:43:27;;;;;;;3.13;1.73;;;;;;;;;;5088852;28;19962;-80
2020/12/11 14:45:53;;;;;;;3.28;1.58;;;;;;;;;;5062367;28;20273;-81
2020/12/11 14:48:18;;;;;;;2.80;1.77;;;;;;;;;;5071202;28;20051;-81
2020/12/11 14:50:44;;;;;;;5.60;2.05;;;;;;;;;;5067907;28;20048;-80
2020/12/11 14:53:09;;;;;;;4.38;1.73;;;;;;;;;;5069637;28;20066;-80
2020/12/11 14:55:35;;;;;;;4.70;2.15;;;;;;;;;;5061364;28;20025;-81
2020/12/11 14:58:00;;;;;;;3.13;1.75;;;;;;;;;;5069686;28;20031;-80
2020/12/11 15:00:25;;;;;;;5.03;2.20;;;;;;;;;;5064794;28;20404;-81
2020/12/11 15:02:51;;;;;;;4.07;2.55;;;;;;;;;;5062442;28;20471;-80
2020/12/11 15:05:16;;;;;;;4.28;2.20;;;;;;;;;;5070165;28;20360;-80
2020/12/11 15:07:42;;;;;;;4.35;2.08;;;;;;;;;;5062829;28;20134;-80
2020/12/11 15:10:07;;;;;;;3.97;2.30;;;;;;;;;;5054208;28;20031;-79
2020/12/11 15:12:32;;;;;;;2.83;2.03;;;;;;;;;;5078842;28;20017;-80
2020/12/11 15:14:58;;;;;;;5.90;2.00;;;;;;;;;;5063101;28;20016;-80
2020/12/11 15:17:23;;;;;;;4.50;2.35;;;;;;;;;;5055598;28;20071;-80
2020/12/11 15:19:48;;;;;;;3.65;2.17;;;;;;;;;;5066495;28;20020;-80
2020/12/11 15:22:13;;;;;;;3.83;2.05;;;;;;;;;;5063129;28;20039;-80
2020/12/11 15:24:38;;;;;;;3.50;2.10;;;;;;;;;;5069974;28;20533;-80